Skip Navigation Links
NOAA logo - Click to go to the NOAA homepage
NOAA's National Weather Service
Alaska Aviation Weather Unit
  NWS logo - Click to go to the NWS homepage
Left Navbar Graphic     02 AKDT = 10 GMT

   
NOAA is celebrating 200 years of science, service, and stewardship. Visit the NOAA 200th celebration Web site to learn more.
USA.gov is the U.S. Government's official Web portal to all Federal, state and local government Web resources and services.
Facebook
NWS on Facebook

AAWU Home :: Display TAF Add Bookmark
METAR PADK 290416Z AUTO 09014KT 10SM SCT030 BKN037 OVC043 03/M05 A2964
     RMK AO1=

PADK 290436Z AUTO 09013KT 10SM FEW030 BKN038 OVC045 03/M05
     A2964=

METAR PADK 290456Z AUTO 09015KT 10SM FEW033 OVC041 03/M05 A2964=

PADK 290516Z AUTO 09013KT 10SM OVC045 03/M05 A2964=

PADK 290536Z AUTO 11009KT 10SM SCT028 BKN036 OVC047 02/M06
     A2963=

METAR PADK 290556Z AUTO 09014KT 10SM FEW028 BKN043 OVC050 03/M05
     A2963=

PADK 290616Z AUTO 07017G20KT 10SM FEW035 OVC046 02/M04 A2963=

PADK 290636Z AUTO 07012KT 10SM SCT029 SCT036 OVC047 02/M04
     A2963=

METAR PADK 290656Z AUTO 10013KT 10SM SCT028 SCT036 OVC049 03/M06
     A2963=

PADK 290716Z AUTO 10009KT 10SM FEW028 OVC047 02/M06 A2962=

PADK 290736Z AUTO 09011KT 10SM OVC049 03/M06 A2962=

METAR PADK 290756Z AUTO 08018KT 10SM OVC049 03/M05 A2962=

PADK 290816Z AUTO 07016KT 10SM BKN049 OVC055 02/M04 A2961=

PADK 290836Z AUTO 07015G21KT 10SM FEW024 BKN037 OVC046 02/M04
     A2961=

METAR PADK 290856Z AUTO 08012KT 10SM FEW024 SCT038 OVC050 02/M05
     A2960=

PADK 290916Z AUTO 06013KT 10SM BKN050 OVC060 02/M04 A2960=

PADK 290936Z AUTO 05007KT 10SM FEW033 BKN042 OVC049 02/M04
     A2959=

METAR PADK 290956Z AUTO 10007KT 10SM SCT023 BKN033 OVC050 02/M04
     A2959=

PADK 291016Z AUTO 09013KT 10SM FEW020 OVC050 02/M04 A2958=

PADK 291036Z AUTO 09014KT 10SM FEW036 OVC050 02/M05 A2958=


NOAA's National Weather Service
Alaska Aviation Weather Unit
6930 Sand Lake Road
Anchorage, AK 99502-1845
Disclaimer
Credits
Glossary
Privacy Policy
About Us
Career Opportunities
Contact AAWU Internet Services Site last modified: April, 17th 2012